Главная страница
METAR-TAF:

METAR-TAF

Аэропорты :

Стокгольм-Вестерос

Вестерос, Швеция

широта: 59-35N, долгота: 016-38E, высота над уровнем моря: 6 м

Текущие метеонаблюдения

Эта сводка был подготовлена 15 минут назад, в 10:50 UTC
Ветер 12 Узел от юго-восточный
Температура 21°C
Влажность 53%
Давление 998 hPa
Видимость 10 км и более
Нет облачности ниже 1500 м, и нет кучево-дождевой облачности

METAR: ESOW 241050Z 14012KT CAVOK 21/11 Q0998

Время: 13:05 (11:05 UTC)

Прогноз

Эта сводка был подготовлена 2 часа и 35 минут назад, в 08:30 UTC
Прогноз действительный с 24-го 09 UTC до 24-го 15 UTC
Ветер 8 Узел от юго-юго-восточный
Видимость 10 км и более
Нет облачности ниже 1500 м, и нет кучево-дождевой облачности
временами
С 24-го 14 UTC до 24-го 15 UTC
Отдельные облака на высоте 4000 фута, Кучево-дождевые.
ливневые дожди

TAF: ESOW 240830Z 2409/2415 16008KT CAVOK TEMPO 2414/2415 SHRA SCT040CB

Метеонаблюдения и прогнозы для более 4000 аэропортов (сводки METAR и TAF).

Имеющиеся станции представлены на карте желтыми и красными точками.

Чтобы увидеть название станции, наведите на нее мышь.

Затем щелкните, чтобы увидеть метеонаблюдения и метеопрогнозы.

Управление картой: чтобы увеличить масштаб, щелкните зеленые кнопки с черным крестиком; чтобы уменьшить масштаб, щелкните зеленую кнопку с тире; для просмотра соседних карт щелкайте зеленые стрелки.


METAR-TAF: